sensor_id;sensor_type;location;lat;lon;timestamp;temperature;humidity
16781;DHT22;8507;50.056;8.248;2022-10-16T00:01:53;14.90;99.90
16781;DHT22;8507;50.056;8.248;2022-10-16T00:04:19;14.90;99.90
16781;DHT22;8507;50.056;8.248;2022-10-16T00:06:44;14.90;99.90
16781;DHT22;8507;50.056;8.248;2022-10-16T00:09:10;15.00;99.90
16781;DHT22;8507;50.056;8.248;2022-10-16T00:11:37;15.00;99.90
16781;DHT22;8507;50.056;8.248;2022-10-16T00:14:06;15.10;99.90
16781;DHT22;8507;50.056;8.248;2022-10-16T00:16:34;15.10;99.90
16781;DHT22;8507;50.056;8.248;2022-10-16T00:18:59;15.20;99.90
16781;DHT22;8507;50.056;8.248;2022-10-16T00:21:28;15.20;99.90
16781;DHT22;8507;50.056;8.248;2022-10-16T00:23:56;15.30;99.90
16781;DHT22;8507;50.056;8.248;2022-10-16T00:26:25;15.30;99.90
16781;DHT22;8507;50.056;8.248;2022-10-16T00:28:51;15.20;99.90
16781;DHT22;8507;50.056;8.248;2022-10-16T00:31:19;15.10;99.90
16781;DHT22;8507;50.056;8.248;2022-10-16T00:33:45;15.20;99.90
16781;DHT22;8507;50.056;8.248;2022-10-16T00:36:13;15.20;99.90
16781;DHT22;8507;50.056;8.248;2022-10-16T00:38:38;15.20;99.90
16781;DHT22;8507;50.056;8.248;2022-10-16T00:41:11;15.30;99.90
16781;DHT22;8507;50.056;8.248;2022-10-16T00:43:44;15.30;99.90
16781;DHT22;8507;50.056;8.248;2022-10-16T00:48:38;15.20;99.90
16781;DHT22;8507;50.056;8.248;2022-10-16T00:51:06;15.20;99.90
16781;DHT22;8507;50.056;8.248;2022-10-16T00:53:32;15.30;99.90
16781;DHT22;8507;50.056;8.248;2022-10-16T00:55:58;15.40;99.90
16781;DHT22;8507;50.056;8.248;2022-10-16T00:58:23;15.40;99.90
16781;DHT22;8507;50.056;8.248;2022-10-16T01:00:49;15.50;99.90
16781;DHT22;8507;50.056;8.248;2022-10-16T01:03:30;15.50;99.90
16781;DHT22;8507;50.056;8.248;2022-10-16T01:06:24;15.50;99.90
16781;DHT22;8507;50.056;8.248;2022-10-16T01:09:33;15.50;99.90
16781;DHT22;8507;50.056;8.248;2022-10-16T01:12:12;15.40;99.90
16781;DHT22;8507;50.056;8.248;2022-10-16T01:14:53;15.50;99.90
16781;DHT22;8507;50.056;8.248;2022-10-16T01:17:24;15.50;99.90
16781;DHT22;8507;50.056;8.248;2022-10-16T01:20:07;15.10;99.90
16781;DHT22;8507;50.056;8.248;2022-10-16T01:22:51;15.00;99.90
16781;DHT22;8507;50.056;8.248;2022-10-16T01:25:28;14.90;99.90
16781;DHT22;8507;50.056;8.248;2022-10-16T01:27:57;14.80;99.90
16781;DHT22;8507;50.056;8.248;2022-10-16T01:30:28;14.90;99.90
16781;DHT22;8507;50.056;8.248;2022-10-16T01:33:14;15.10;99.90
16781;DHT22;8507;50.056;8.248;2022-10-16T01:35:45;15.20;99.90
16781;DHT22;8507;50.056;8.248;2022-10-16T01:38:35;15.20;99.90
16781;DHT22;8507;50.056;8.248;2022-10-16T01:41:12;15.30;99.90
16781;DHT22;8507;50.056;8.248;2022-10-16T01:43:57;15.40;99.90
16781;DHT22;8507;50.056;8.248;2022-10-16T01:46:24;15.40;99.90
16781;DHT22;8507;50.056;8.248;2022-10-16T01:48:51;15.40;99.90
16781;DHT22;8507;50.056;8.248;2022-10-16T01:51:18;15.40;99.90
16781;DHT22;8507;50.056;8.248;2022-10-16T01:53:48;15.20;99.90
16781;DHT22;8507;50.056;8.248;2022-10-16T01:56:16;15.10;99.90
16781;DHT22;8507;50.056;8.248;2022-10-16T01:58:58;15.10;99.90
16781;DHT22;8507;50.056;8.248;2022-10-16T02:01:27;15.10;99.90
16781;DHT22;8507;50.056;8.248;2022-10-16T02:03:56;15.10;99.90
16781;DHT22;8507;50.056;8.248;2022-10-16T02:06:23;15.10;99.90
16781;DHT22;8507;50.056;8.248;2022-10-16T02:08:50;15.10;99.90
16781;DHT22;8507;50.056;8.248;2022-10-16T02:11:15;15.00;99.90
16781;DHT22;8507;50.056;8.248;2022-10-16T02:13:54;15.10;99.90
16781;DHT22;8507;50.056;8.248;2022-10-16T02:16:20;15.20;99.90
16781;DHT22;8507;50.056;8.248;2022-10-16T02:18:46;15.30;99.90
16781;DHT22;8507;50.056;8.248;2022-10-16T02:21:28;15.40;99.90
16781;DHT22;8507;50.056;8.248;2022-10-16T02:29:22;15.50;99.90
16781;DHT22;8507;50.056;8.248;2022-10-16T02:31:50;15.50;99.90
16781;DHT22;8507;50.056;8.248;2022-10-16T02:34:18;15.60;99.90
16781;DHT22;8507;50.056;8.248;2022-10-16T02:36:45;15.50;99.90
16781;DHT22;8507;50.056;8.248;2022-10-16T02:39:13;15.60;99.90
16781;DHT22;8507;50.056;8.248;2022-10-16T02:41:39;15.60;99.90
16781;DHT22;8507;50.056;8.248;2022-10-16T02:44:05;15.70;99.90
16781;DHT22;8507;50.056;8.248;2022-10-16T02:46:30;15.60;99.90
16781;DHT22;8507;50.056;8.248;2022-10-16T02:48:56;15.70;99.90
16781;DHT22;8507;50.056;8.248;2022-10-16T02:51:21;15.80;99.90
16781;DHT22;8507;50.056;8.248;2022-10-16T02:53:47;15.70;99.90
16781;DHT22;8507;50.056;8.248;2022-10-16T02:56:12;15.50;99.90
16781;DHT22;8507;50.056;8.248;2022-10-16T02:58:38;15.30;99.90
16781;DHT22;8507;50.056;8.248;2022-10-16T03:01:04;15.20;99.90
16781;DHT22;8507;50.056;8.248;2022-10-16T03:03:29;15.20;99.90
16781;DHT22;8507;50.056;8.248;2022-10-16T03:05:55;15.30;99.90
16781;DHT22;8507;50.056;8.248;2022-10-16T03:08:20;15.20;99.90
16781;DHT22;8507;50.056;8.248;2022-10-16T03:10:49;15.30;99.90
16781;DHT22;8507;50.056;8.248;2022-10-16T03:13:15;15.40;99.90
16781;DHT22;8507;50.056;8.248;2022-10-16T03:15:40;15.40;99.90
16781;DHT22;8507;50.056;8.248;2022-10-16T03:18:06;15.40;99.90
16781;DHT22;8507;50.056;8.248;2022-10-16T03:20:32;15.40;99.90
16781;DHT22;8507;50.056;8.248;2022-10-16T03:22:57;15.50;99.90
16781;DHT22;8507;50.056;8.248;2022-10-16T03:25:23;15.50;99.90
16781;DHT22;8507;50.056;8.248;2022-10-16T03:27:48;15.60;99.90
16781;DHT22;8507;50.056;8.248;2022-10-16T03:30:14;15.70;99.90
16781;DHT22;8507;50.056;8.248;2022-10-16T03:32:39;15.60;99.90
16781;DHT22;8507;50.056;8.248;2022-10-16T03:35:05;15.60;99.90
16781;DHT22;8507;50.056;8.248;2022-10-16T03:37:31;15.60;99.90
16781;DHT22;8507;50.056;8.248;2022-10-16T03:39:56;15.70;99.90
16781;DHT22;8507;50.056;8.248;2022-10-16T03:42:22;15.60;99.90
16781;DHT22;8507;50.056;8.248;2022-10-16T03:44:47;15.60;99.90
16781;DHT22;8507;50.056;8.248;2022-10-16T03:47:13;15.50;99.90
16781;DHT22;8507;50.056;8.248;2022-10-16T03:49:39;15.50;99.90
16781;DHT22;8507;50.056;8.248;2022-10-16T03:52:04;15.60;99.90
16781;DHT22;8507;50.056;8.248;2022-10-16T03:54:30;15.70;99.90
16781;DHT22;8507;50.056;8.248;2022-10-16T03:56:55;15.70;99.90
16781;DHT22;8507;50.056;8.248;2022-10-16T03:59:21;15.70;99.90
16781;DHT22;8507;50.056;8.248;2022-10-16T04:01:46;15.70;99.90
16781;DHT22;8507;50.056;8.248;2022-10-16T04:04:12;15.70;99.90
16781;DHT22;8507;50.056;8.248;2022-10-16T04:06:37;15.70;99.90
16781;DHT22;8507;50.056;8.248;2022-10-16T04:09:03;15.70;99.90
16781;DHT22;8507;50.056;8.248;2022-10-16T04:11:28;15.80;99.90
16781;DHT22;8507;50.056;8.248;2022-10-16T04:13:54;15.90;99.90
16781;DHT22;8507;50.056;8.248;2022-10-16T04:16:20;15.90;99.90
16781;DHT22;8507;50.056;8.248;2022-10-16T04:18:45;15.90;99.90
16781;DHT22;8507;50.056;8.248;2022-10-16T04:21:11;15.90;99.90
16781;DHT22;8507;50.056;8.248;2022-10-16T04:23:37;15.90;99.90
16781;DHT22;8507;50.056;8.248;2022-10-16T04:26:03;15.90;99.90
16781;DHT22;8507;50.056;8.248;2022-10-16T04:28:28;15.90;99.90
16781;DHT22;8507;50.056;8.248;2022-10-16T04:30:54;15.80;99.90
16781;DHT22;8507;50.056;8.248;2022-10-16T04:33:20;15.70;99.90
16781;DHT22;8507;50.056;8.248;2022-10-16T04:35:45;15.60;99.90
16781;DHT22;8507;50.056;8.248;2022-10-16T04:38:11;15.60;99.90
16781;DHT22;8507;50.056;8.248;2022-10-16T04:40:36;15.70;99.90
16781;DHT22;8507;50.056;8.248;2022-10-16T04:43:03;15.60;99.90
16781;DHT22;8507;50.056;8.248;2022-10-16T04:45:29;15.50;99.90
16781;DHT22;8507;50.056;8.248;2022-10-16T04:47:58;15.60;99.90
16781;DHT22;8507;50.056;8.248;2022-10-16T04:50:24;15.70;99.90
16781;DHT22;8507;50.056;8.248;2022-10-16T04:52:50;15.60;99.90
16781;DHT22;8507;50.056;8.248;2022-10-16T04:55:15;15.80;99.90
16781;DHT22;8507;50.056;8.248;2022-10-16T04:57:41;15.80;99.90
16781;DHT22;8507;50.056;8.248;2022-10-16T05:00:07;15.70;99.90
16781;DHT22;8507;50.056;8.248;2022-10-16T05:02:33;15.70;99.90
16781;DHT22;8507;50.056;8.248;2022-10-16T05:04:59;15.70;99.90
16781;DHT22;8507;50.056;8.248;2022-10-16T05:07:24;15.60;99.90
16781;DHT22;8507;50.056;8.248;2022-10-16T05:09:50;15.70;99.90
16781;DHT22;8507;50.056;8.248;2022-10-16T05:12:15;15.80;99.90
16781;DHT22;8507;50.056;8.248;2022-10-16T05:14:41;15.70;99.90
16781;DHT22;8507;50.056;8.248;2022-10-16T05:17:06;15.70;99.90
16781;DHT22;8507;50.056;8.248;2022-10-16T05:19:32;15.70;99.90
16781;DHT22;8507;50.056;8.248;2022-10-16T05:21:58;15.60;99.90
16781;DHT22;8507;50.056;8.248;2022-10-16T05:24:24;15.60;99.90
16781;DHT22;8507;50.056;8.248;2022-10-16T05:26:50;15.60;99.90
16781;DHT22;8507;50.056;8.248;2022-10-16T05:29:16;15.50;99.90
16781;DHT22;8507;50.056;8.248;2022-10-16T05:31:41;15.50;99.90
16781;DHT22;8507;50.056;8.248;2022-10-16T05:34:07;15.60;99.90
16781;DHT22;8507;50.056;8.248;2022-10-16T05:36:32;15.60;99.90
16781;DHT22;8507;50.056;8.248;2022-10-16T05:38:58;15.60;99.90
16781;DHT22;8507;50.056;8.248;2022-10-16T05:41:24;15.70;99.90
16781;DHT22;8507;50.056;8.248;2022-10-16T05:43:51;15.70;99.90
16781;DHT22;8507;50.056;8.248;2022-10-16T05:46:17;15.60;99.90
16781;DHT22;8507;50.056;8.248;2022-10-16T05:48:43;15.70;99.90
16781;DHT22;8507;50.056;8.248;2022-10-16T05:51:13;15.70;99.90
16781;DHT22;8507;50.056;8.248;2022-10-16T05:53:39;15.80;99.90
16781;DHT22;8507;50.056;8.248;2022-10-16T05:56:06;15.90;99.90
16781;DHT22;8507;50.056;8.248;2022-10-16T05:58:34;15.90;99.90
16781;DHT22;8507;50.056;8.248;2022-10-16T06:01:27;15.90;99.90
16781;DHT22;8507;50.056;8.248;2022-10-16T06:03:53;15.80;99.90
16781;DHT22;8507;50.056;8.248;2022-10-16T06:06:21;15.80;99.90
16781;DHT22;8507;50.056;8.248;2022-10-16T06:08:48;15.70;99.90
16781;DHT22;8507;50.056;8.248;2022-10-16T06:11:20;15.80;99.90
16781;DHT22;8507;50.056;8.248;2022-10-16T06:13:53;15.90;99.90
16781;DHT22;8507;50.056;8.248;2022-10-16T06:16:19;15.90;99.90
16781;DHT22;8507;50.056;8.248;2022-10-16T06:18:45;16.00;99.90
16781;DHT22;8507;50.056;8.248;2022-10-16T06:21:14;15.90;99.90
16781;DHT22;8507;50.056;8.248;2022-10-16T06:23:40;15.80;99.90
16781;DHT22;8507;50.056;8.248;2022-10-16T06:26:11;15.60;99.90
16781;DHT22;8507;50.056;8.248;2022-10-16T06:28:37;15.50;99.90
16781;DHT22;8507;50.056;8.248;2022-10-16T06:31:04;15.40;99.90
16781;DHT22;8507;50.056;8.248;2022-10-16T06:33:30;15.40;99.90
16781;DHT22;8507;50.056;8.248;2022-10-16T06:36:07;15.50;99.90
16781;DHT22;8507;50.056;8.248;2022-10-16T06:38:33;15.40;99.90
16781;DHT22;8507;50.056;8.248;2022-10-16T06:40:59;15.30;99.90
16781;DHT22;8507;50.056;8.248;2022-10-16T06:43:25;15.30;99.90
16781;DHT22;8507;50.056;8.248;2022-10-16T06:45:55;15.30;99.90
16781;DHT22;8507;50.056;8.248;2022-10-16T06:48:22;15.50;99.90
16781;DHT22;8507;50.056;8.248;2022-10-16T06:51:02;15.60;99.90
16781;DHT22;8507;50.056;8.248;2022-10-16T06:53:30;15.80;99.90
16781;DHT22;8507;50.056;8.248;2022-10-16T06:55:56;15.80;99.90
16781;DHT22;8507;50.056;8.248;2022-10-16T06:58:22;15.90;99.90
16781;DHT22;8507;50.056;8.248;2022-10-16T07:00:48;16.00;99.90
16781;DHT22;8507;50.056;8.248;2022-10-16T07:03:14;16.00;99.90
16781;DHT22;8507;50.056;8.248;2022-10-16T07:05:42;16.10;99.90
16781;DHT22;8507;50.056;8.248;2022-10-16T07:08:08;16.20;99.90
16781;DHT22;8507;50.056;8.248;2022-10-16T07:10:34;16.20;99.90
16781;DHT22;8507;50.056;8.248;2022-10-16T07:13:00;16.20;99.90
16781;DHT22;8507;50.056;8.248;2022-10-16T07:15:26;16.20;99.90
16781;DHT22;8507;50.056;8.248;2022-10-16T07:17:52;16.20;99.90
16781;DHT22;8507;50.056;8.248;2022-10-16T07:20:19;16.00;99.90
16781;DHT22;8507;50.056;8.248;2022-10-16T07:22:44;16.00;99.90
16781;DHT22;8507;50.056;8.248;2022-10-16T07:25:10;15.90;99.90
16781;DHT22;8507;50.056;8.248;2022-10-16T07:27:36;15.80;99.90
16781;DHT22;8507;50.056;8.248;2022-10-16T07:30:02;15.90;99.90
16781;DHT22;8507;50.056;8.248;2022-10-16T07:32:28;15.90;99.90
16781;DHT22;8507;50.056;8.248;2022-10-16T07:34:53;16.00;99.90
16781;DHT22;8507;50.056;8.248;2022-10-16T07:37:21;15.90;99.90
16781;DHT22;8507;50.056;8.248;2022-10-16T07:39:46;15.90;99.90
16781;DHT22;8507;50.056;8.248;2022-10-16T07:42:12;15.80;99.90
16781;DHT22;8507;50.056;8.248;2022-10-16T07:44:38;15.90;99.90
16781;DHT22;8507;50.056;8.248;2022-10-16T07:47:03;15.80;99.90
16781;DHT22;8507;50.056;8.248;2022-10-16T07:49:29;15.90;99.90
16781;DHT22;8507;50.056;8.248;2022-10-16T07:51:54;16.00;99.90
16781;DHT22;8507;50.056;8.248;2022-10-16T07:54:20;16.10;99.90
16781;DHT22;8507;50.056;8.248;2022-10-16T07:56:45;16.20;99.90
16781;DHT22;8507;50.056;8.248;2022-10-16T07:59:11;16.30;99.90
16781;DHT22;8507;50.056;8.248;2022-10-16T08:01:37;16.20;99.90
16781;DHT22;8507;50.056;8.248;2022-10-16T08:04:03;16.10;99.90
16781;DHT22;8507;50.056;8.248;2022-10-16T08:06:28;16.20;99.90
16781;DHT22;8507;50.056;8.248;2022-10-16T08:08:55;16.10;99.90
16781;DHT22;8507;50.056;8.248;2022-10-16T08:11:21;16.20;99.90
16781;DHT22;8507;50.056;8.248;2022-10-16T08:13:46;16.20;99.90
16781;DHT22;8507;50.056;8.248;2022-10-16T08:16:13;16.20;99.90
16781;DHT22;8507;50.056;8.248;2022-10-16T08:18:40;16.30;99.90
16781;DHT22;8507;50.056;8.248;2022-10-16T08:21:07;16.40;99.90
16781;DHT22;8507;50.056;8.248;2022-10-16T08:23:33;16.30;99.90
16781;DHT22;8507;50.056;8.248;2022-10-16T08:26:04;16.20;99.90
16781;DHT22;8507;50.056;8.248;2022-10-16T08:28:30;16.20;99.90
16781;DHT22;8507;50.056;8.248;2022-10-16T08:30:56;16.10;99.90
16781;DHT22;8507;50.056;8.248;2022-10-16T08:33:22;16.10;99.90
16781;DHT22;8507;50.056;8.248;2022-10-16T08:35:54;16.00;99.90
16781;DHT22;8507;50.056;8.248;2022-10-16T08:38:20;16.00;99.90
16781;DHT22;8507;50.056;8.248;2022-10-16T08:40:45;16.10;99.90
16781;DHT22;8507;50.056;8.248;2022-10-16T08:46:21;16.40;99.90
16781;DHT22;8507;50.056;8.248;2022-10-16T08:48:57;16.50;99.90
16781;DHT22;8507;50.056;8.248;2022-10-16T08:51:27;16.50;99.90
16781;DHT22;8507;50.056;8.248;2022-10-16T08:54:32;16.60;99.90
16781;DHT22;8507;50.056;8.248;2022-10-16T08:57:16;16.70;99.90
16781;DHT22;8507;50.056;8.248;2022-10-16T08:59:42;16.80;99.90
16781;DHT22;8507;50.056;8.248;2022-10-16T09:02:45;16.60;99.90
16781;DHT22;8507;50.056;8.248;2022-10-16T09:05:42;16.70;99.90
16781;DHT22;8507;50.056;8.248;2022-10-16T09:13:26;17.10;99.90
16781;DHT22;8507;50.056;8.248;2022-10-16T09:16:18;17.00;99.90
16781;DHT22;8507;50.056;8.248;2022-10-16T09:21:45;17.10;99.90
16781;DHT22;8507;50.056;8.248;2022-10-16T09:24:20;16.80;99.90
16781;DHT22;8507;50.056;8.248;2022-10-16T09:26:47;16.80;99.90
16781;DHT22;8507;50.056;8.248;2022-10-16T09:29:14;16.80;99.90
16781;DHT22;8507;50.056;8.248;2022-10-16T09:31:40;16.80;99.90
16781;DHT22;8507;50.056;8.248;2022-10-16T09:36:46;17.10;99.90
16781;DHT22;8507;50.056;8.248;2022-10-16T09:39:12;17.30;99.90
16781;DHT22;8507;50.056;8.248;2022-10-16T09:41:40;17.30;99.90
16781;DHT22;8507;50.056;8.248;2022-10-16T09:44:22;17.40;99.90
16781;DHT22;8507;50.056;8.248;2022-10-16T09:46:48;17.50;99.90
16781;DHT22;8507;50.056;8.248;2022-10-16T09:49:26;17.60;99.90
16781;DHT22;8507;50.056;8.248;2022-10-16T09:52:12;17.70;99.90
16781;DHT22;8507;50.056;8.248;2022-10-16T09:54:58;17.90;99.90
16781;DHT22;8507;50.056;8.248;2022-10-16T09:57:25;18.10;99.90
16781;DHT22;8507;50.056;8.248;2022-10-16T09:59:52;18.30;99.90
16781;DHT22;8507;50.056;8.248;2022-10-16T10:02:24;18.50;99.90
16781;DHT22;8507;50.056;8.248;2022-10-16T10:04:52;18.80;99.90
16781;DHT22;8507;50.056;8.248;2022-10-16T10:07:26;19.20;99.90
16781;DHT22;8507;50.056;8.248;2022-10-16T10:09:53;19.20;99.90
16781;DHT22;8507;50.056;8.248;2022-10-16T10:12:27;19.00;99.90
16781;DHT22;8507;50.056;8.248;2022-10-16T10:14:56;18.90;99.90
16781;DHT22;8507;50.056;8.248;2022-10-16T10:17:27;18.70;99.90
16781;DHT22;8507;50.056;8.248;2022-10-16T10:19:55;19.10;99.90
16781;DHT22;8507;50.056;8.248;2022-10-16T10:22:31;19.30;99.90
16781;DHT22;8507;50.056;8.248;2022-10-16T10:27:37;19.70;99.90
16781;DHT22;8507;50.056;8.248;2022-10-16T10:32:56;20.00;99.90
16781;DHT22;8507;50.056;8.248;2022-10-16T10:35:43;20.10;99.90
16781;DHT22;8507;50.056;8.248;2022-10-16T11:01:09;20.60;99.90
16781;DHT22;8507;50.056;8.248;2022-10-16T11:04:14;20.80;99.90
16781;DHT22;8507;50.056;8.248;2022-10-16T11:07:04;20.80;99.90
16781;DHT22;8507;50.056;8.248;2022-10-16T11:09:38;20.90;99.90
16781;DHT22;8507;50.056;8.248;2022-10-16T11:12:19;21.10;99.90
16781;DHT22;8507;50.056;8.248;2022-10-16T11:15:04;21.50;99.90
16781;DHT22;8507;50.056;8.248;2022-10-16T11:17:39;21.50;99.90
16781;DHT22;8507;50.056;8.248;2022-10-16T11:20:31;21.40;99.90
16781;DHT22;8507;50.056;8.248;2022-10-16T11:23:21;21.30;99.90
16781;DHT22;8507;50.056;8.248;2022-10-16T11:25:49;21.80;99.90
16781;DHT22;8507;50.056;8.248;2022-10-16T11:28:27;22.00;99.90
16781;DHT22;8507;50.056;8.248;2022-10-16T11:31:00;21.70;99.90
16781;DHT22;8507;50.056;8.248;2022-10-16T11:38:57;22.00;99.90
16781;DHT22;8507;50.056;8.248;2022-10-16T11:44:21;22.20;99.90
16781;DHT22;8507;50.056;8.248;2022-10-16T11:49:39;22.00;99.90
16781;DHT22;8507;50.056;8.248;2022-10-16T11:54:47;22.60;99.90
16781;DHT22;8507;50.056;8.248;2022-10-16T11:57:27;22.90;99.90
16781;DHT22;8507;50.056;8.248;2022-10-16T12:08:18;23.00;99.90
16781;DHT22;8507;50.056;8.248;2022-10-16T12:10:46;22.80;99.90
16781;DHT22;8507;50.056;8.248;2022-10-16T12:13:31;22.60;99.90
16781;DHT22;8507;50.056;8.248;2022-10-16T12:18:43;22.10;99.90
16781;DHT22;8507;50.056;8.248;2022-10-16T12:21:10;22.00;99.90
16781;DHT22;8507;50.056;8.248;2022-10-16T12:23:56;21.90;99.90
16781;DHT22;8507;50.056;8.248;2022-10-16T12:26:29;21.90;99.90
16781;DHT22;8507;50.056;8.248;2022-10-16T12:28:56;21.70;99.90
16781;DHT22;8507;50.056;8.248;2022-10-16T12:31:23;21.70;99.90
16781;DHT22;8507;50.056;8.248;2022-10-16T12:34:01;21.60;99.90
16781;DHT22;8507;50.056;8.248;2022-10-16T12:36:32;21.50;99.90
16781;DHT22;8507;50.056;8.248;2022-10-16T12:38:59;21.60;99.90
16781;DHT22;8507;50.056;8.248;2022-10-16T12:41:30;21.50;99.90
16781;DHT22;8507;50.056;8.248;2022-10-16T12:43:57;21.60;99.90
16781;DHT22;8507;50.056;8.248;2022-10-16T12:46:43;21.70;99.90
16781;DHT22;8507;50.056;8.248;2022-10-16T12:49:20;21.60;99.90
16781;DHT22;8507;50.056;8.248;2022-10-16T12:51:47;21.50;99.90
16781;DHT22;8507;50.056;8.248;2022-10-16T12:54:18;21.50;99.90
16781;DHT22;8507;50.056;8.248;2022-10-16T12:57:07;21.50;99.90
16781;DHT22;8507;50.056;8.248;2022-10-16T12:59:48;21.40;99.90
16781;DHT22;8507;50.056;8.248;2022-10-16T13:10:40;21.50;99.90
16781;DHT22;8507;50.056;8.248;2022-10-16T13:19:04;20.90;99.90
16781;DHT22;8507;50.056;8.248;2022-10-16T13:22:05;20.80;99.90
16781;DHT22;8507;50.056;8.248;2022-10-16T13:30:24;21.00;99.90
16781;DHT22;8507;50.056;8.248;2022-10-16T13:33:03;20.60;99.90
16781;DHT22;8507;50.056;8.248;2022-10-16T13:35:32;20.70;99.90
16781;DHT22;8507;50.056;8.248;2022-10-16T13:38:13;20.80;99.90
16781;DHT22;8507;50.056;8.248;2022-10-16T13:40:55;20.80;99.90
16781;DHT22;8507;50.056;8.248;2022-10-16T13:43:33;20.40;99.90
16781;DHT22;8507;50.056;8.248;2022-10-16T13:48:29;20.00;99.90
16781;DHT22;8507;50.056;8.248;2022-10-16T13:53:33;20.20;99.90
16781;DHT22;8507;50.056;8.248;2022-10-16T13:56:01;20.20;99.90
16781;DHT22;8507;50.056;8.248;2022-10-16T13:58:27;20.30;99.90
16781;DHT22;8507;50.056;8.248;2022-10-16T14:00:58;20.00;99.90
16781;DHT22;8507;50.056;8.248;2022-10-16T14:03:25;20.10;99.90
16781;DHT22;8507;50.056;8.248;2022-10-16T14:06:02;20.10;99.90
16781;DHT22;8507;50.056;8.248;2022-10-16T14:08:29;20.30;99.90
16781;DHT22;8507;50.056;8.248;2022-10-16T14:10:58;20.30;99.90
16781;DHT22;8507;50.056;8.248;2022-10-16T14:13:44;20.50;99.90
16781;DHT22;8507;50.056;8.248;2022-10-16T14:16:37;20.50;99.90
16781;DHT22;8507;50.056;8.248;2022-10-16T14:19:04;20.60;99.90
16781;DHT22;8507;50.056;8.248;2022-10-16T14:21:35;20.80;99.90
16781;DHT22;8507;50.056;8.248;2022-10-16T14:24:31;20.90;99.90
16781;DHT22;8507;50.056;8.248;2022-10-16T14:26:57;20.80;99.90
16781;DHT22;8507;50.056;8.248;2022-10-16T14:29:25;20.70;99.90
16781;DHT22;8507;50.056;8.248;2022-10-16T14:34:32;20.80;99.90
16781;DHT22;8507;50.056;8.248;2022-10-16T14:37:01;20.70;99.90
16781;DHT22;8507;50.056;8.248;2022-10-16T14:39:32;20.70;99.90
16781;DHT22;8507;50.056;8.248;2022-10-16T14:41:58;20.20;99.90
16781;DHT22;8507;50.056;8.248;2022-10-16T14:44:32;20.30;99.90
16781;DHT22;8507;50.056;8.248;2022-10-16T14:47:06;20.30;99.90
16781;DHT22;8507;50.056;8.248;2022-10-16T14:49:32;20.30;99.90
16781;DHT22;8507;50.056;8.248;2022-10-16T14:51:58;20.40;99.90
16781;DHT22;8507;50.056;8.248;2022-10-16T14:54:23;20.40;99.90
16781;DHT22;8507;50.056;8.248;2022-10-16T14:56:57;20.20;99.90
16781;DHT22;8507;50.056;8.248;2022-10-16T14:59:35;20.10;99.90
16781;DHT22;8507;50.056;8.248;2022-10-16T15:04:46;20.20;99.90
16781;DHT22;8507;50.056;8.248;2022-10-16T15:07:12;20.20;99.90
16781;DHT22;8507;50.056;8.248;2022-10-16T15:09:37;20.10;99.90
16781;DHT22;8507;50.056;8.248;2022-10-16T15:12:03;20.00;99.90
16781;DHT22;8507;50.056;8.248;2022-10-16T15:14:28;20.00;99.90
16781;DHT22;8507;50.056;8.248;2022-10-16T15:16:54;20.00;99.90
16781;DHT22;8507;50.056;8.248;2022-10-16T15:19:19;20.00;99.90
16781;DHT22;8507;50.056;8.248;2022-10-16T15:21:45;20.10;99.90
16781;DHT22;8507;50.056;8.248;2022-10-16T15:24:13;20.10;99.90
16781;DHT22;8507;50.056;8.248;2022-10-16T15:26:39;20.10;99.90
16781;DHT22;8507;50.056;8.248;2022-10-16T15:29:05;20.00;99.90
16781;DHT22;8507;50.056;8.248;2022-10-16T15:31:31;20.00;99.90
16781;DHT22;8507;50.056;8.248;2022-10-16T15:33:56;19.90;99.90
16781;DHT22;8507;50.056;8.248;2022-10-16T15:36:31;19.60;99.90
16781;DHT22;8507;50.056;8.248;2022-10-16T15:38:59;19.60;99.90
16781;DHT22;8507;50.056;8.248;2022-10-16T15:41:24;19.50;99.90
16781;DHT22;8507;50.056;8.248;2022-10-16T15:43:51;19.60;99.90
16781;DHT22;8507;50.056;8.248;2022-10-16T15:46:21;19.60;99.90
16781;DHT22;8507;50.056;8.248;2022-10-16T15:48:48;19.70;99.90
16781;DHT22;8507;50.056;8.248;2022-10-16T15:51:13;19.70;99.90
16781;DHT22;8507;50.056;8.248;2022-10-16T15:53:39;19.80;99.90
16781;DHT22;8507;50.056;8.248;2022-10-16T15:56:06;19.70;99.90
16781;DHT22;8507;50.056;8.248;2022-10-16T15:58:33;19.70;99.90
16781;DHT22;8507;50.056;8.248;2022-10-16T16:01:00;19.60;99.90
16781;DHT22;8507;50.056;8.248;2022-10-16T16:03:26;19.60;99.90
16781;DHT22;8507;50.056;8.248;2022-10-16T16:05:52;19.50;99.90
16781;DHT22;8507;50.056;8.248;2022-10-16T16:08:18;19.40;99.90
16781;DHT22;8507;50.056;8.248;2022-10-16T16:10:44;19.40;99.90
16781;DHT22;8507;50.056;8.248;2022-10-16T16:13:10;19.30;99.90
16781;DHT22;8507;50.056;8.248;2022-10-16T16:15:39;19.30;99.90
16781;DHT22;8507;50.056;8.248;2022-10-16T16:18:04;19.20;99.90
16781;DHT22;8507;50.056;8.248;2022-10-16T16:20:31;19.30;99.90
16781;DHT22;8507;50.056;8.248;2022-10-16T16:22:56;19.20;99.90
16781;DHT22;8507;50.056;8.248;2022-10-16T16:25:22;19.10;99.90
16781;DHT22;8507;50.056;8.248;2022-10-16T16:27:48;19.00;99.90
16781;DHT22;8507;50.056;8.248;2022-10-16T16:30:13;19.00;99.90
16781;DHT22;8507;50.056;8.248;2022-10-16T16:32:39;19.00;99.90
16781;DHT22;8507;50.056;8.248;2022-10-16T16:35:05;19.00;99.90
16781;DHT22;8507;50.056;8.248;2022-10-16T16:37:30;19.00;99.90
16781;DHT22;8507;50.056;8.248;2022-10-16T16:39:56;18.90;99.90
16781;DHT22;8507;50.056;8.248;2022-10-16T16:42:27;18.70;99.90
16781;DHT22;8507;50.056;8.248;2022-10-16T16:44:53;18.70;99.90
16781;DHT22;8507;50.056;8.248;2022-10-16T16:47:18;18.70;99.90
16781;DHT22;8507;50.056;8.248;2022-10-16T16:49:44;18.70;99.90
16781;DHT22;8507;50.056;8.248;2022-10-16T16:52:12;18.60;99.90
16781;DHT22;8507;50.056;8.248;2022-10-16T16:54:38;18.50;99.90
16781;DHT22;8507;50.056;8.248;2022-10-16T16:57:04;18.40;99.90
16781;DHT22;8507;50.056;8.248;2022-10-16T16:59:30;18.40;99.90
16781;DHT22;8507;50.056;8.248;2022-10-16T17:01:58;18.40;99.90
16781;DHT22;8507;50.056;8.248;2022-10-16T17:04:25;18.40;99.90
16781;DHT22;8507;50.056;8.248;2022-10-16T17:06:55;18.40;99.90
16781;DHT22;8507;50.056;8.248;2022-10-16T17:09:21;18.40;99.90
16781;DHT22;8507;50.056;8.248;2022-10-16T17:11:47;18.40;99.90
16781;DHT22;8507;50.056;8.248;2022-10-16T17:14:14;18.30;99.90
16781;DHT22;8507;50.056;8.248;2022-10-16T17:16:40;18.30;99.90
16781;DHT22;8507;50.056;8.248;2022-10-16T17:19:13;18.30;99.90
16781;DHT22;8507;50.056;8.248;2022-10-16T17:21:39;18.40;99.90
16781;DHT22;8507;50.056;8.248;2022-10-16T17:24:05;18.30;99.90
16781;DHT22;8507;50.056;8.248;2022-10-16T17:26:31;18.10;99.90
16781;DHT22;8507;50.056;8.248;2022-10-16T17:29:00;18.00;99.90
16781;DHT22;8507;50.056;8.248;2022-10-16T17:31:28;18.00;99.90
16781;DHT22;8507;50.056;8.248;2022-10-16T17:33:55;17.90;99.90
16781;DHT22;8507;50.056;8.248;2022-10-16T17:36:21;17.80;99.90
16781;DHT22;8507;50.056;8.248;2022-10-16T17:38:47;17.80;99.90
16781;DHT22;8507;50.056;8.248;2022-10-16T17:41:16;17.70;99.90
16781;DHT22;8507;50.056;8.248;2022-10-16T17:43:43;17.70;99.90
16781;DHT22;8507;50.056;8.248;2022-10-16T17:46:09;17.60;99.90